Champaign, Illinois
Current Conditions -  °F | °C
As of 2:53 PM on Friday 31 Oct 2014 (Local Time) from KCMI Reporting Station
Broken Clouds Broken Clouds  
Wind Chill: 33°   Ceiling: 4500
Heat Index: 43°   Visibility: 10mi
Dew Point: 26°   Wind: 30mph
Humidity: 51%   Direction: 330°NNW
Pressure: 30.16"   Gusts: 38mph
Location:  40.11°N, 88.24°W
Report Text: KCMI 311953Z 33026G33KT 10SM BKN045 06/M03 A3016 RMK AO2 PK WND 33038/1943 SLP218 T00611033 $
Loading
Personal Weather Stations






























Interactive Weather Map New forecast layout! Learn more

10-Day Weather Forecast

Advertisements
Track Severe Weather on mobile